PWSweather.com
Personal Weather Stations
Station Observations
ARECO747
Argentina , San Antonio ArecoAR Bs.As

Argentina San Antonio ArecoAR Bs.As

Lat: -34.24447275818, Lon: -59.47654187679

Elevation: 102

Station Type: InformaciĆ³n generada con nuevo Microchip Ethernet conectado a estaciĆ³n WH1081

http://www.meteostar.com.ar

Latest ConditionsUpdated 7:04:40 AM GMT-03:57 Tuesday, Oct 15, 2019
Currently Today's Max Today's Min Today's Average
Temperature 47.1°F8.4°C 49.1°F9.5°C 46.8°F8.2°C 47.6°F8.7°C
Dew Point 33.4°F0.8°C 33.4°F0.8°C 30.9°F-0.6°C 32.0°F0.0°C
Winds 3.8 mph SE6.1 kmh SE 8.3 mph -13.4 kmh - - 4.9 mph 7.9 kmh
Wind Gusts 10.7 mph17.2 kmh 16.8 mph27.0 kmh - -
Humidity 59% 59% 50% 55%
Pressure 30.40 in1029.5 mb 30.41 in1029.8 mb 30.35 in1027.8 mb -
Hour Temp Dew Point Humidity Winds Wind Gusts Pressure Precip Precip Rate Daily Precip Total
07:04 AM 47.1°F8.4°C 33.4°F0.8°C 59% 3.8 mph SE6.1 kmh SE 10.7 mph17.2 kmh 30.40 in1029.5 mb 0.00 in0.0 mm 0.00 in0.0 mm 0.00 in0.0 mm
06:59 AM 47.1°F8.4°C 33.4°F0.8°C 59% 5.4 mph E8.7 kmh E 9.2 mph14.8 kmh 30.40 in1029.5 mb 0.00 in0.0 mm 0.00 in0.0 mm 0.00 in0.0 mm
06:54 AM 47.1°F8.4°C 33.4°F0.8°C 59% 5.4 mph S8.7 kmh S 12.1 mph19.5 kmh 30.40 in1029.5 mb 0.00 in0.0 mm 0.00 in0.0 mm 0.00 in0.0 mm
06:49 AM 47.1°F8.4°C 33.4°F0.8°C 59% 4.5 mph S7.2 kmh S 9.8 mph15.8 kmh 30.39 in1029.1 mb 0.00 in0.0 mm 0.00 in0.0 mm 0.00 in0.0 mm
06:44 AM 47.1°F8.4°C 33.4°F0.8°C 59% 5.4 mph SSE8.7 kmh SSE 9.8 mph15.8 kmh 30.39 in1029.1 mb 0.00 in0.0 mm 0.00 in0.0 mm 0.00 in0.0 mm
06:38 AM 47.1°F8.4°C 33.1°F0.6°C 58% 4.5 mph S7.2 kmh S 12.1 mph19.5 kmh 30.39 in1029.1 mb 0.00 in0.0 mm 0.00 in0.0 mm 0.00 in0.0 mm
06:33 AM 47.1°F8.4°C 33.1°F0.6°C 58% 7.6 mph S12.2 kmh S 11.4 mph18.3 kmh 30.39 in1029.1 mb 0.00 in0.0 mm 0.00 in0.0 mm 0.00 in0.0 mm
06:28 AM 47.3°F8.5°C 33.3°F0.7°C 58% 3.8 mph S6.1 kmh S 9.8 mph15.8 kmh 30.38 in1028.8 mb 0.00 in0.0 mm 0.00 in0.0 mm 0.00 in0.0 mm
06:23 AM 47.3°F8.5°C 33.3°F0.7°C 58% 5.4 mph S8.7 kmh S 9.2 mph14.8 kmh 30.38 in1028.8 mb 0.00 in0.0 mm 0.00 in0.0 mm 0.00 in0.0 mm
06:18 AM 47.3°F8.5°C 33.3°F0.7°C 58% 5.4 mph SSE8.7 kmh SSE 8.3 mph13.4 kmh 30.38 in1028.8 mb 0.00 in0.0 mm 0.00 in0.0 mm 0.00 in0.0 mm
06:12 AM 47.3°F8.5°C 33.3°F0.7°C 58% 4.5 mph SSE7.2 kmh SSE 11.4 mph18.3 kmh 30.38 in1028.8 mb 0.00 in0.0 mm 0.00 in0.0 mm 0.00 in0.0 mm
06:07 AM 47.3°F8.5°C 33.3°F0.7°C 58% 4.5 mph SW7.2 kmh SW 9.8 mph15.8 kmh 30.38 in1028.8 mb 0.00 in0.0 mm 0.00 in0.0 mm 0.00 in0.0 mm
06:02 AM 47.3°F8.5°C 33.3°F0.7°C 58% 4.5 mph SE7.2 kmh SE 9.2 mph14.8 kmh 30.38 in1028.8 mb 0.00 in0.0 mm 0.00 in0.0 mm 0.00 in0.0 mm
05:57 AM 47.1°F8.4°C 33.1°F0.6°C 58% 4.5 mph SE7.2 kmh SE 12.1 mph19.5 kmh 30.38 in1028.8 mb 0.00 in0.0 mm 0.00 in0.0 mm 0.00 in0.0 mm
05:52 AM 47.1°F8.4°C 33.1°F0.6°C 58% 5.4 mph SE8.7 kmh SE 12.1 mph19.5 kmh 30.37 in1028.4 mb 0.00 in0.0 mm 0.00 in0.0 mm 0.00 in0.0 mm
05:47 AM 47.1°F8.4°C 33.1°F0.6°C 58% 3.1 mph SE5.0 kmh SE 8.3 mph13.4 kmh 30.37 in1028.4 mb 0.00 in0.0 mm 0.00 in0.0 mm 0.00 in0.0 mm
05:41 AM 46.9°F8.3°C 32.9°F0.5°C 58% 6.0 mph SE9.7 kmh SE 10.7 mph17.2 kmh 30.37 in1028.4 mb 0.00 in0.0 mm 0.00 in0.0 mm 0.00 in0.0 mm
05:36 AM 46.9°F8.3°C 32.9°F0.5°C 58% 6.9 mph S11.1 kmh S 10.7 mph17.2 kmh 30.36 in1028.1 mb 0.00 in0.0 mm 0.00 in0.0 mm 0.00 in0.0 mm
05:31 AM 46.9°F8.3°C 32.9°F0.5°C 58% 6.9 mph SE11.1 kmh SE 13.0 mph20.9 kmh 30.37 in1028.4 mb 0.00 in0.0 mm 0.00 in0.0 mm 0.00 in0.0 mm
05:26 AM 46.9°F8.3°C 32.9°F0.5°C 58% 4.5 mph SSE7.2 kmh SSE 12.1 mph19.5 kmh 30.36 in1028.1 mb 0.00 in0.0 mm 0.00 in0.0 mm 0.00 in0.0 mm
05:21 AM 46.8°F8.2°C 32.4°F0.2°C 57% 3.8 mph SE6.1 kmh SE 16.8 mph27.0 kmh 30.35 in1027.8 mb 0.00 in0.0 mm 0.00 in0.0 mm 0.00 in0.0 mm
05:16 AM 46.8°F8.2°C 32.4°F0.2°C 57% 6.9 mph NE11.1 kmh NE 14.5 mph23.3 kmh 30.35 in1027.8 mb 0.00 in0.0 mm 0.00 in0.0 mm 0.00 in0.0 mm
05:10 AM 46.8°F8.2°C 32.4°F0.2°C 57% 5.4 mph SE8.7 kmh SE 13.0 mph20.9 kmh 30.35 in1027.8 mb 0.00 in0.0 mm 0.00 in0.0 mm 0.00 in0.0 mm
05:05 AM 46.9°F8.3°C 32.5°F0.3°C 57% 4.5 mph SW7.2 kmh SW 11.4 mph18.3 kmh 30.36 in1028.1 mb 0.00 in0.0 mm 0.00 in0.0 mm 0.00 in0.0 mm
05:00 AM 46.9°F8.3°C 32.5°F0.3°C 57% 4.5 mph SE7.2 kmh SE 11.4 mph18.3 kmh 30.36 in1028.1 mb 0.00 in0.0 mm 0.00 in0.0 mm 0.00 in0.0 mm
04:55 AM 46.8°F8.2°C 32.4°F0.2°C 57% 2.2 mph SW3.5 kmh SW 9.8 mph15.8 kmh 30.36 in1028.1 mb 0.00 in0.0 mm 0.00 in0.0 mm 0.00 in0.0 mm
04:50 AM 46.8°F8.2°C 32.4°F0.2°C 57% 6.0 mph SW9.7 kmh SW 10.7 mph17.2 kmh 30.36 in1028.1 mb 0.00 in0.0 mm 0.00 in0.0 mm 0.00 in0.0 mm
04:45 AM 46.8°F8.2°C 32.4°F0.2°C 57% 5.4 mph S8.7 kmh S 15.9 mph25.6 kmh 30.37 in1028.4 mb 0.00 in0.0 mm 0.00 in0.0 mm 0.00 in0.0 mm
04:39 AM 46.8°F8.2°C 31.8°F-0.1°C 56% 4.5 mph SE7.2 kmh SE 13.6 mph21.9 kmh 30.37 in1028.4 mb 0.00 in0.0 mm 0.00 in0.0 mm 0.00 in0.0 mm
04:34 AM 46.8°F8.2°C 31.8°F-0.1°C 56% 3.8 mph NW6.1 kmh NW 10.7 mph17.2 kmh 30.37 in1028.4 mb 0.00 in0.0 mm 0.00 in0.0 mm 0.00 in0.0 mm
04:29 AM 46.8°F8.2°C 31.8°F-0.1°C 56% 3.8 mph S6.1 kmh S 10.7 mph17.2 kmh 30.37 in1028.4 mb 0.00 in0.0 mm 0.00 in0.0 mm 0.00 in0.0 mm
04:24 AM 46.8°F8.2°C 31.8°F-0.1°C 56% 3.8 mph SE6.1 kmh SE 10.7 mph17.2 kmh 30.37 in1028.4 mb 0.00 in0.0 mm 0.00 in0.0 mm 0.00 in0.0 mm
04:19 AM 46.9°F8.3°C 31.6°F-0.2°C 55% 5.4 mph SSE8.7 kmh SSE 8.3 mph13.4 kmh 30.37 in1028.4 mb 0.00 in0.0 mm 0.00 in0.0 mm 0.00 in0.0 mm
04:14 AM 46.9°F8.3°C 31.6°F-0.2°C 55% 4.5 mph S7.2 kmh S 10.7 mph17.2 kmh 30.37 in1028.4 mb 0.00 in0.0 mm 0.00 in0.0 mm 0.00 in0.0 mm
04:08 AM 47.1°F8.4°C 31.8°F-0.1°C 55% 5.4 mph E8.7 kmh E 9.8 mph15.8 kmh 30.37 in1028.4 mb 0.00 in0.0 mm 0.00 in0.0 mm 0.00 in0.0 mm
04:03 AM 47.1°F8.4°C 31.8°F-0.1°C 55% 3.8 mph S6.1 kmh S 9.8 mph15.8 kmh 30.37 in1028.4 mb 0.00 in0.0 mm 0.00 in0.0 mm 0.00 in0.0 mm
03:58 AM 47.1°F8.4°C 31.8°F-0.1°C 55% 3.8 mph SW6.1 kmh SW 8.3 mph13.4 kmh 30.38 in1028.8 mb 0.00 in0.0 mm 0.00 in0.0 mm 0.00 in0.0 mm
03:53 AM 47.1°F8.4°C 31.8°F-0.1°C 55% 4.5 mph NE7.2 kmh NE 8.3 mph13.4 kmh 30.37 in1028.4 mb 0.00 in0.0 mm 0.00 in0.0 mm 0.00 in0.0 mm
03:48 AM 47.1°F8.4°C 31.8°F-0.1°C 55% 6.0 mph E9.7 kmh E 13.0 mph20.9 kmh 30.37 in1028.4 mb 0.00 in0.0 mm 0.00 in0.0 mm 0.00 in0.0 mm
03:43 AM 47.1°F8.4°C 31.8°F-0.1°C 55% 4.5 mph W7.2 kmh W 9.8 mph15.8 kmh 30.38 in1028.8 mb 0.00 in0.0 mm 0.00 in0.0 mm 0.00 in0.0 mm
03:37 AM 47.1°F8.4°C 31.8°F-0.1°C 55% 6.0 mph W9.7 kmh W 9.2 mph14.8 kmh 30.39 in1029.1 mb 0.00 in0.0 mm 0.00 in0.0 mm 0.00 in0.0 mm
03:32 AM 47.1°F8.4°C 31.8°F-0.1°C 55% 4.5 mph SE7.2 kmh SE 9.2 mph14.8 kmh 30.39 in1029.1 mb 0.00 in0.0 mm 0.00 in0.0 mm 0.00 in0.0 mm
03:27 AM 46.9°F8.3°C 32.0°F0.0°C 56% 3.1 mph SE5.0 kmh SE 7.6 mph12.2 kmh 30.39 in1029.1 mb 0.00 in0.0 mm 0.00 in0.0 mm 0.00 in0.0 mm
03:22 AM 46.9°F8.3°C 31.6°F-0.2°C 55% 3.8 mph S6.1 kmh S 8.3 mph13.4 kmh 30.39 in1029.1 mb 0.00 in0.0 mm 0.00 in0.0 mm 0.00 in0.0 mm
03:17 AM 46.9°F8.3°C 31.6°F-0.2°C 55% 3.8 mph E6.1 kmh E 6.0 mph9.7 kmh 30.40 in1029.5 mb 0.00 in0.0 mm 0.00 in0.0 mm 0.00 in0.0 mm
03:12 AM 46.9°F8.3°C 31.6°F-0.2°C 55% 3.8 mph SE6.1 kmh SE 7.6 mph12.2 kmh 30.39 in1029.1 mb 0.00 in0.0 mm 0.00 in0.0 mm 0.00 in0.0 mm
03:06 AM 47.1°F8.4°C 31.8°F-0.1°C 55% 2.2 mph SE3.5 kmh SE 7.6 mph12.2 kmh 30.39 in1029.1 mb 0.00 in0.0 mm 0.00 in0.0 mm 0.00 in0.0 mm
03:01 AM 47.1°F8.4°C 31.8°F-0.1°C 55% 3.1 mph S5.0 kmh S 10.7 mph17.2 kmh 30.39 in1029.1 mb 0.00 in0.0 mm 0.00 in0.0 mm 0.00 in0.0 mm
02:56 AM 47.3°F8.5°C 31.5°F-0.3°C 54% 6.0 mph SE9.7 kmh SE 8.3 mph13.4 kmh 30.39 in1029.1 mb 0.00 in0.0 mm 0.00 in0.0 mm 0.00 in0.0 mm
02:51 AM 47.5°F8.6°C 31.6°F-0.2°C 54% 3.1 mph SE5.0 kmh SE 8.3 mph13.4 kmh 30.39 in1029.1 mb 0.00 in0.0 mm 0.00 in0.0 mm 0.00 in0.0 mm
02:46 AM 47.5°F8.6°C 31.6°F-0.2°C 54% 2.2 mph E3.5 kmh E 9.2 mph14.8 kmh 30.39 in1029.1 mb 0.00 in0.0 mm 0.00 in0.0 mm 0.00 in0.0 mm
02:41 AM 47.7°F8.7°C 31.8°F-0.1°C 54% 4.5 mph SE7.2 kmh SE 9.2 mph14.8 kmh 30.39 in1029.1 mb 0.00 in0.0 mm 0.00 in0.0 mm 0.00 in0.0 mm
02:35 AM 47.7°F8.7°C 31.3°F-0.4°C 53% 4.5 mph NE7.2 kmh NE 8.3 mph13.4 kmh 30.38 in1028.8 mb 0.00 in0.0 mm 0.00 in0.0 mm 0.00 in0.0 mm
02:30 AM 47.8°F8.8°C 31.5°F-0.3°C 53% 5.4 mph E8.7 kmh E 9.2 mph14.8 kmh 30.38 in1028.8 mb 0.00 in0.0 mm 0.00 in0.0 mm 0.00 in0.0 mm
02:20 AM 48.0°F8.9°C 31.6°F-0.2°C 53% 4.5 mph SE7.2 kmh SE 9.8 mph15.8 kmh 30.39 in1029.1 mb 0.00 in0.0 mm 0.00 in0.0 mm 0.00 in0.0 mm
02:15 AM 48.2°F9.0°C 31.5°F-0.3°C 52% 4.5 mph S7.2 kmh S 10.7 mph17.2 kmh 30.39 in1029.1 mb 0.00 in0.0 mm 0.00 in0.0 mm 0.00 in0.0 mm
02:10 AM 48.2°F9.0°C 31.5°F-0.3°C 52% 6.0 mph NE9.7 kmh NE 11.4 mph18.3 kmh 30.39 in1029.1 mb 0.00 in0.0 mm 0.00 in0.0 mm 0.00 in0.0 mm
02:04 AM 48.4°F9.1°C 31.6°F-0.2°C 52% 5.4 mph E8.7 kmh E 10.7 mph17.2 kmh 30.39 in1029.1 mb 0.00 in0.0 mm 0.00 in0.0 mm 0.00 in0.0 mm
01:56 AM 48.4°F9.1°C 31.6°F-0.2°C 52% 3.8 mph E6.1 kmh E 13.0 mph20.9 kmh 30.39 in1029.1 mb 0.00 in0.0 mm 0.00 in0.0 mm 0.00 in0.0 mm
01:51 AM 48.4°F9.1°C 31.6°F-0.2°C 52% 4.5 mph SE7.2 kmh SE 13.0 mph20.9 kmh 30.39 in1029.1 mb 0.00 in0.0 mm 0.00 in0.0 mm 0.00 in0.0 mm
01:46 AM 48.4°F9.1°C 31.6°F-0.2°C 52% 3.1 mph SE5.0 kmh SE 11.4 mph18.3 kmh 30.39 in1029.1 mb 0.00 in0.0 mm 0.00 in0.0 mm 0.00 in0.0 mm
01:41 AM 48.4°F9.1°C 31.6°F-0.2°C 52% 6.0 mph E9.7 kmh E 9.2 mph14.8 kmh 30.39 in1029.1 mb 0.00 in0.0 mm 0.00 in0.0 mm 0.00 in0.0 mm
01:36 AM 48.4°F9.1°C 31.1°F-0.5°C 51% 5.4 mph ESE8.7 kmh ESE 13.0 mph20.9 kmh 30.39 in1029.1 mb 0.00 in0.0 mm 0.00 in0.0 mm 0.00 in0.0 mm
01:31 AM 48.4°F9.1°C 31.1°F-0.5°C 51% 6.0 mph ESE9.7 kmh ESE 10.7 mph17.2 kmh 30.39 in1029.1 mb 0.00 in0.0 mm 0.00 in0.0 mm 0.00 in0.0 mm
01:25 AM 48.4°F9.1°C 31.1°F-0.5°C 51% 6.0 mph SE9.7 kmh SE 15.9 mph25.6 kmh 30.39 in1029.1 mb 0.00 in0.0 mm 0.00 in0.0 mm 0.00 in0.0 mm
01:20 AM 48.4°F9.1°C 31.1°F-0.5°C 51% 8.3 mph ENE13.4 kmh ENE 10.7 mph17.2 kmh 30.40 in1029.5 mb 0.00 in0.0 mm 0.00 in0.0 mm 0.00 in0.0 mm
01:15 AM 48.4°F9.1°C 31.1°F-0.5°C 51% 6.0 mph SE9.7 kmh SE 12.1 mph19.5 kmh 30.41 in1029.8 mb 0.00 in0.0 mm 0.00 in0.0 mm 0.00 in0.0 mm
01:10 AM 48.4°F9.1°C 31.1°F-0.5°C 51% 3.8 mph E6.1 kmh E 10.7 mph17.2 kmh 30.40 in1029.5 mb 0.00 in0.0 mm 0.00 in0.0 mm 0.00 in0.0 mm
01:05 AM 48.7°F9.3°C 31.5°F-0.3°C 51% 4.5 mph SE7.2 kmh SE 9.8 mph15.8 kmh 30.41 in1029.8 mb 0.00 in0.0 mm 0.00 in0.0 mm 0.00 in0.0 mm
12:59 AM 48.7°F9.3°C 31.5°F-0.3°C 51% 3.8 mph SE6.1 kmh SE 13.0 mph20.9 kmh 30.41 in1029.8 mb 0.00 in0.0 mm 0.00 in0.0 mm 0.00 in0.0 mm
12:54 AM 48.7°F9.3°C 31.5°F-0.3°C 51% 8.3 mph SSE13.4 kmh SSE 13.0 mph20.9 kmh 30.40 in1029.5 mb 0.00 in0.0 mm 0.00 in0.0 mm 0.00 in0.0 mm
12:49 AM 48.7°F9.3°C 30.9°F-0.6°C 50% 4.5 mph E7.2 kmh E 11.4 mph18.3 kmh 30.41 in1029.8 mb 0.00 in0.0 mm 0.00 in0.0 mm 0.00 in0.0 mm
12:44 AM 48.7°F9.3°C 30.9°F-0.6°C 50% 4.5 mph S7.2 kmh S 9.2 mph14.8 kmh 30.40 in1029.5 mb 0.00 in0.0 mm 0.00 in0.0 mm 0.00 in0.0 mm
12:39 AM 48.7°F9.3°C 30.9°F-0.6°C 50% 6.9 mph SE11.1 kmh SE 11.4 mph18.3 kmh 30.40 in1029.5 mb 0.00 in0.0 mm 0.00 in0.0 mm 0.00 in0.0 mm
12:34 AM 48.9°F9.4°C 31.1°F-0.5°C 50% 6.0 mph S9.7 kmh S 12.1 mph19.5 kmh 30.40 in1029.5 mb 0.00 in0.0 mm 0.00 in0.0 mm 0.00 in0.0 mm
12:28 AM 48.9°F9.4°C 31.1°F-0.5°C 50% 6.0 mph S9.7 kmh S 10.7 mph17.2 kmh 30.40 in1029.5 mb 0.00 in0.0 mm 0.00 in0.0 mm 0.00 in0.0 mm
12:23 AM 48.9°F9.4°C 31.1°F-0.5°C 50% 6.9 mph S11.1 kmh S 12.1 mph19.5 kmh 30.40 in1029.5 mb 0.00 in0.0 mm 0.00 in0.0 mm 0.00 in0.0 mm
12:18 AM 48.9°F9.4°C 31.1°F-0.5°C 50% 7.6 mph SE12.2 kmh SE 9.8 mph15.8 kmh 30.39 in1029.1 mb 0.00 in0.0 mm 0.00 in0.0 mm 0.00 in0.0 mm
12:13 AM 48.9°F9.4°C 31.1°F-0.5°C 50% 4.5 mph E7.2 kmh E 12.1 mph19.5 kmh 30.39 in1029.1 mb 0.00 in0.0 mm 0.00 in0.0 mm 0.00 in0.0 mm
12:08 AM 48.9°F9.4°C 31.1°F-0.5°C 50% 3.8 mph S6.1 kmh S 11.4 mph18.3 kmh 30.39 in1029.1 mb 0.00 in0.0 mm 0.00 in0.0 mm 0.00 in0.0 mm
12:03 AM 49.1°F9.5°C 31.3°F-0.4°C 50% 5.4 mph ESE8.7 kmh ESE 10.7 mph17.2 kmh 30.39 in1029.1 mb 0.00 in0.0 mm 0.00 in0.0 mm 0.00 in0.0 mm